sensor_id;sensor_type;location;lat;lon;timestamp;P1;durP1;ratioP1;P2;durP2;ratioP2
45322;SDS011;31382;50.200;8.674;2023-07-31T00:03:58;1.85;;;0.60;;
45322;SDS011;31382;50.200;8.674;2023-07-31T00:09:00;3.25;;;0.82;;
45322;SDS011;31382;50.200;8.674;2023-07-31T00:14:01;4.35;;;0.55;;
45322;SDS011;31382;50.200;8.674;2023-07-31T00:19:02;2.85;;;0.40;;
45322;SDS011;31382;50.200;8.674;2023-07-31T00:24:04;4.28;;;0.63;;
45322;SDS011;31382;50.200;8.674;2023-07-31T00:29:05;3.63;;;1.17;;
45322;SDS011;31382;50.200;8.674;2023-07-31T00:34:07;2.67;;;0.60;;
45322;SDS011;31382;50.200;8.674;2023-07-31T00:39:08;3.38;;;0.40;;
45322;SDS011;31382;50.200;8.674;2023-07-31T00:44:10;2.58;;;0.82;;
45322;SDS011;31382;50.200;8.674;2023-07-31T00:49:11;3.90;;;0.60;;
45322;SDS011;31382;50.200;8.674;2023-07-31T00:54:13;4.28;;;0.82;;
45322;SDS011;31382;50.200;8.674;2023-07-31T00:59:15;6.90;;;0.77;;
45322;SDS011;31382;50.200;8.674;2023-07-31T01:04:17;3.50;;;0.73;;
45322;SDS011;31382;50.200;8.674;2023-07-31T01:14:52;2.97;;;0.60;;
45322;SDS011;31382;50.200;8.674;2023-07-31T01:20:03;3.35;;;0.60;;
45322;SDS011;31382;50.200;8.674;2023-07-31T01:25:15;2.97;;;1.05;;
45322;SDS011;31382;50.200;8.674;2023-07-31T01:30:32;2.35;;;0.70;;
45322;SDS011;31382;50.200;8.674;2023-07-31T01:35:37;3.90;;;0.95;;
45322;SDS011;31382;50.200;8.674;2023-07-31T01:40:41;1.45;;;0.40;;
45322;SDS011;31382;50.200;8.674;2023-07-31T01:45:43;1.95;;;0.45;;
45322;SDS011;31382;50.200;8.674;2023-07-31T01:50:44;4.35;;;0.68;;
45322;SDS011;31382;50.200;8.674;2023-07-31T01:55:46;1.70;;;1.00;;
45322;SDS011;31382;50.200;8.674;2023-07-31T02:00:47;2.53;;;0.40;;
45322;SDS011;31382;50.200;8.674;2023-07-31T02:05:49;1.50;;;0.40;;
45322;SDS011;31382;50.200;8.674;2023-07-31T02:10:51;3.08;;;0.65;;
45322;SDS011;31382;50.200;8.674;2023-07-31T02:15:53;1.38;;;0.60;;
45322;SDS011;31382;50.200;8.674;2023-07-31T02:20:54;6.47;;;0.60;;
45322;SDS011;31382;50.200;8.674;2023-07-31T02:25:56;3.92;;;0.93;;
45322;SDS011;31382;50.200;8.674;2023-07-31T02:30:57;2.75;;;0.55;;
45322;SDS011;31382;50.200;8.674;2023-07-31T02:35:59;2.70;;;0.60;;
45322;SDS011;31382;50.200;8.674;2023-07-31T02:41:00;3.63;;;1.27;;
45322;SDS011;31382;50.200;8.674;2023-07-31T02:46:02;2.40;;;0.60;;
45322;SDS011;31382;50.200;8.674;2023-07-31T02:51:03;3.00;;;0.60;;
45322;SDS011;31382;50.200;8.674;2023-07-31T02:56:05;4.00;;;0.57;;
45322;SDS011;31382;50.200;8.674;2023-07-31T03:01:06;2.70;;;0.50;;
45322;SDS011;31382;50.200;8.674;2023-07-31T03:06:07;4.53;;;0.57;;
45322;SDS011;31382;50.200;8.674;2023-07-31T03:11:09;4.30;;;0.80;;
45322;SDS011;31382;50.200;8.674;2023-07-31T03:16:10;5.07;;;0.60;;
45322;SDS011;31382;50.200;8.674;2023-07-31T03:21:12;4.68;;;0.47;;
45322;SDS011;31382;50.200;8.674;2023-07-31T03:26:14;2.33;;;0.60;;
45322;SDS011;31382;50.200;8.674;2023-07-31T03:31:15;3.92;;;0.88;;
45322;SDS011;31382;50.200;8.674;2023-07-31T03:36:17;7.05;;;1.13;;
45322;SDS011;31382;50.200;8.674;2023-07-31T03:41:18;2.38;;;0.63;;
45322;SDS011;31382;50.200;8.674;2023-07-31T03:46:20;3.50;;;0.60;;
45322;SDS011;31382;50.200;8.674;2023-07-31T03:51:21;5.63;;;1.00;;
45322;SDS011;31382;50.200;8.674;2023-07-31T03:56:25;4.82;;;0.50;;
45322;SDS011;31382;50.200;8.674;2023-07-31T04:01:26;5.03;;;0.65;;
45322;SDS011;31382;50.200;8.674;2023-07-31T04:06:30;8.05;;;0.80;;
45322;SDS011;31382;50.200;8.674;2023-07-31T04:11:32;3.13;;;0.60;;
45322;SDS011;31382;50.200;8.674;2023-07-31T04:16:33;5.07;;;0.85;;
45322;SDS011;31382;50.200;8.674;2023-07-31T04:21:35;2.28;;;0.55;;
45322;SDS011;31382;50.200;8.674;2023-07-31T04:26:36;6.85;;;2.15;;
45322;SDS011;31382;50.200;8.674;2023-07-31T04:31:38;4.15;;;0.73;;
45322;SDS011;31382;50.200;8.674;2023-07-31T04:36:40;3.67;;;0.50;;
45322;SDS011;31382;50.200;8.674;2023-07-31T04:41:41;6.15;;;0.68;;
45322;SDS011;31382;50.200;8.674;2023-07-31T04:46:43;6.85;;;1.70;;
45322;SDS011;31382;50.200;8.674;2023-07-31T04:51:44;4.50;;;0.80;;
45322;SDS011;31382;50.200;8.674;2023-07-31T04:56:46;4.05;;;1.42;;
45322;SDS011;31382;50.200;8.674;2023-07-31T05:01:48;4.97;;;0.70;;
45322;SDS011;31382;50.200;8.674;2023-07-31T05:06:50;3.08;;;0.80;;
45322;SDS011;31382;50.200;8.674;2023-07-31T05:11:51;4.72;;;0.70;;
45322;SDS011;31382;50.200;8.674;2023-07-31T05:16:53;5.07;;;0.70;;
45322;SDS011;31382;50.200;8.674;2023-07-31T05:21:54;2.80;;;0.70;;
45322;SDS011;31382;50.200;8.674;2023-07-31T05:26:56;2.20;;;0.60;;
45322;SDS011;31382;50.200;8.674;2023-07-31T05:31:57;1.10;;;0.60;;
45322;SDS011;31382;50.200;8.674;2023-07-31T05:36:59;3.92;;;0.70;;
45322;SDS011;31382;50.200;8.674;2023-07-31T05:42:00;4.38;;;0.60;;
45322;SDS011;31382;50.200;8.674;2023-07-31T05:47:01;6.10;;;1.08;;
45322;SDS011;31382;50.200;8.674;2023-07-31T05:52:03;6.45;;;1.23;;
45322;SDS011;31382;50.200;8.674;2023-07-31T05:57:05;4.38;;;0.68;;
45322;SDS011;31382;50.200;8.674;2023-07-31T06:02:06;5.85;;;0.90;;
45322;SDS011;31382;50.200;8.674;2023-07-31T06:07:08;7.88;;;0.70;;
45322;SDS011;31382;50.200;8.674;2023-07-31T06:12:09;2.75;;;0.85;;
45322;SDS011;31382;50.200;8.674;2023-07-31T06:17:11;3.53;;;0.80;;
45322;SDS011;31382;50.200;8.674;2023-07-31T06:22:12;2.35;;;0.50;;
45322;SDS011;31382;50.200;8.674;2023-07-31T06:27:14;4.63;;;0.63;;
45322;SDS011;31382;50.200;8.674;2023-07-31T06:32:15;6.13;;;0.57;;
45322;SDS011;31382;50.200;8.674;2023-07-31T06:37:17;5.82;;;1.30;;
45322;SDS011;31382;50.200;8.674;2023-07-31T06:42:18;5.70;;;1.60;;
45322;SDS011;31382;50.200;8.674;2023-07-31T06:47:20;3.92;;;1.00;;
45322;SDS011;31382;50.200;8.674;2023-07-31T06:52:21;3.53;;;0.90;;
45322;SDS011;31382;50.200;8.674;2023-07-31T06:57:23;3.40;;;0.80;;
45322;SDS011;31382;50.200;8.674;2023-07-31T07:02:25;5.45;;;0.85;;
45322;SDS011;31382;50.200;8.674;2023-07-31T07:07:26;7.55;;;1.15;;
45322;SDS011;31382;50.200;8.674;2023-07-31T07:12:29;4.75;;;1.20;;
45322;SDS011;31382;50.200;8.674;2023-07-31T07:17:31;6.20;;;0.93;;
45322;SDS011;31382;50.200;8.674;2023-07-31T07:22:33;3.78;;;1.10;;
45322;SDS011;31382;50.200;8.674;2023-07-31T07:27:34;4.05;;;0.70;;
45322;SDS011;31382;50.200;8.674;2023-07-31T07:32:36;6.10;;;0.75;;
45322;SDS011;31382;50.200;8.674;2023-07-31T07:37:37;3.20;;;0.70;;
45322;SDS011;31382;50.200;8.674;2023-07-31T07:42:38;2.70;;;0.70;;
45322;SDS011;31382;50.200;8.674;2023-07-31T07:47:40;8.93;;;0.80;;
45322;SDS011;31382;50.200;8.674;2023-07-31T07:52:42;3.80;;;0.77;;
45322;SDS011;31382;50.200;8.674;2023-07-31T07:57:43;3.22;;;0.80;;
45322;SDS011;31382;50.200;8.674;2023-07-31T08:02:45;5.75;;;0.90;;
45322;SDS011;31382;50.200;8.674;2023-07-31T08:07:47;5.82;;;1.35;;
45322;SDS011;31382;50.200;8.674;2023-07-31T08:12:49;5.20;;;0.85;;
45322;SDS011;31382;50.200;8.674;2023-07-31T08:17:50;4.18;;;0.70;;
45322;SDS011;31382;50.200;8.674;2023-07-31T08:22:52;3.22;;;0.75;;
45322;SDS011;31382;50.200;8.674;2023-07-31T08:27:54;3.08;;;0.85;;
45322;SDS011;31382;50.200;8.674;2023-07-31T08:32:56;6.45;;;1.45;;
45322;SDS011;31382;50.200;8.674;2023-07-31T08:37:57;3.25;;;0.55;;
45322;SDS011;31382;50.200;8.674;2023-07-31T08:42:59;2.90;;;0.65;;
45322;SDS011;31382;50.200;8.674;2023-07-31T08:48:03;2.67;;;0.60;;
45322;SDS011;31382;50.200;8.674;2023-07-31T08:53:05;5.05;;;1.15;;
45322;SDS011;31382;50.200;8.674;2023-07-31T08:58:06;4.53;;;0.90;;
45322;SDS011;31382;50.200;8.674;2023-07-31T09:03:13;1.67;;;0.75;;
45322;SDS011;31382;50.200;8.674;2023-07-31T09:08:20;3.53;;;0.80;;
45322;SDS011;31382;50.200;8.674;2023-07-31T09:13:22;3.45;;;0.60;;
45322;SDS011;31382;50.200;8.674;2023-07-31T09:18:24;4.32;;;1.23;;
45322;SDS011;31382;50.200;8.674;2023-07-31T09:23:25;3.05;;;0.70;;
45322;SDS011;31382;50.200;8.674;2023-07-31T09:28:30;5.50;;;0.82;;
45322;SDS011;31382;50.200;8.674;2023-07-31T09:33:32;3.42;;;0.73;;
45322;SDS011;31382;50.200;8.674;2023-07-31T09:38:34;3.53;;;0.90;;
45322;SDS011;31382;50.200;8.674;2023-07-31T09:43:35;4.05;;;1.38;;
45322;SDS011;31382;50.200;8.674;2023-07-31T09:48:38;4.25;;;0.80;;
45322;SDS011;31382;50.200;8.674;2023-07-31T09:53:40;4.30;;;0.70;;
45322;SDS011;31382;50.200;8.674;2023-07-31T09:58:41;5.78;;;1.00;;
45322;SDS011;31382;50.200;8.674;2023-07-31T10:03:43;4.45;;;1.00;;
45322;SDS011;31382;50.200;8.674;2023-07-31T10:08:46;3.42;;;0.70;;
45322;SDS011;31382;50.200;8.674;2023-07-31T10:13:50;3.28;;;0.70;;
45322;SDS011;31382;50.200;8.674;2023-07-31T10:18:52;4.60;;;0.70;;
45322;SDS011;31382;50.200;8.674;2023-07-31T10:23:55;4.93;;;0.80;;
45322;SDS011;31382;50.200;8.674;2023-07-31T10:28:58;3.35;;;0.88;;
45322;SDS011;31382;50.200;8.674;2023-07-31T10:33:59;5.78;;;1.60;;
45322;SDS011;31382;50.200;8.674;2023-07-31T10:39:03;2.53;;;0.70;;
45322;SDS011;31382;50.200;8.674;2023-07-31T10:44:05;1.52;;;0.65;;
45322;SDS011;31382;50.200;8.674;2023-07-31T10:49:08;7.60;;;1.13;;
45322;SDS011;31382;50.200;8.674;2023-07-31T10:54:10;4.28;;;0.88;;
45322;SDS011;31382;50.200;8.674;2023-07-31T10:59:12;2.20;;;0.60;;
45322;SDS011;31382;50.200;8.674;2023-07-31T11:04:15;2.03;;;0.68;;
45322;SDS011;31382;50.200;8.674;2023-07-31T11:09:24;3.20;;;0.88;;
45322;SDS011;31382;50.200;8.674;2023-07-31T11:14:28;2.45;;;0.45;;
45322;SDS011;31382;50.200;8.674;2023-07-31T11:19:30;2.70;;;0.85;;
45322;SDS011;31382;50.200;8.674;2023-07-31T11:24:31;2.55;;;1.13;;
45322;SDS011;31382;50.200;8.674;2023-07-31T11:29:33;5.10;;;0.80;;
45322;SDS011;31382;50.200;8.674;2023-07-31T11:34:50;3.05;;;0.80;;
45322;SDS011;31382;50.200;8.674;2023-07-31T11:39:58;3.78;;;1.20;;
45322;SDS011;31382;50.200;8.674;2023-07-31T11:45:04;2.47;;;1.00;;
45322;SDS011;31382;50.200;8.674;2023-07-31T11:50:09;3.22;;;0.85;;
45322;SDS011;31382;50.200;8.674;2023-07-31T11:55:12;6.82;;;0.68;;
45322;SDS011;31382;50.200;8.674;2023-07-31T12:00:15;3.92;;;0.63;;
45322;SDS011;31382;50.200;8.674;2023-07-31T12:05:18;3.30;;;0.60;;
45322;SDS011;31382;50.200;8.674;2023-07-31T12:10:24;2.80;;;0.75;;
45322;SDS011;31382;50.200;8.674;2023-07-31T12:15:32;3.28;;;1.00;;
45322;SDS011;31382;50.200;8.674;2023-07-31T12:20:41;4.13;;;1.00;;
45322;SDS011;31382;50.200;8.674;2023-07-31T12:25:44;2.45;;;0.82;;
45322;SDS011;31382;50.200;8.674;2023-07-31T12:30:45;2.92;;;0.80;;
45322;SDS011;31382;50.200;8.674;2023-07-31T12:35:47;4.55;;;0.80;;
45322;SDS011;31382;50.200;8.674;2023-07-31T12:40:48;4.65;;;0.73;;
45322;SDS011;31382;50.200;8.674;2023-07-31T12:45:50;6.43;;;0.80;;
45322;SDS011;31382;50.200;8.674;2023-07-31T12:50:51;3.25;;;0.70;;
45322;SDS011;31382;50.200;8.674;2023-07-31T12:55:53;5.00;;;1.67;;
45322;SDS011;31382;50.200;8.674;2023-07-31T13:00:54;3.25;;;0.70;;
45322;SDS011;31382;50.200;8.674;2023-07-31T13:05:56;4.25;;;1.13;;
45322;SDS011;31382;50.200;8.674;2023-07-31T13:10:57;5.63;;;1.80;;
45322;SDS011;31382;50.200;8.674;2023-07-31T13:15:59;4.93;;;0.82;;
45322;SDS011;31382;50.200;8.674;2023-07-31T13:21:01;3.50;;;0.80;;
45322;SDS011;31382;50.200;8.674;2023-07-31T13:26:02;5.20;;;1.23;;
45322;SDS011;31382;50.200;8.674;2023-07-31T13:31:03;4.05;;;1.00;;
45322;SDS011;31382;50.200;8.674;2023-07-31T13:36:05;4.15;;;0.80;;
45322;SDS011;31382;50.200;8.674;2023-07-31T13:41:07;3.28;;;0.80;;
45322;SDS011;31382;50.200;8.674;2023-07-31T13:46:08;5.35;;;0.75;;
45322;SDS011;31382;50.200;8.674;2023-07-31T13:51:12;2.65;;;0.68;;
45322;SDS011;31382;50.200;8.674;2023-07-31T13:56:13;3.92;;;0.73;;
45322;SDS011;31382;50.200;8.674;2023-07-31T14:01:15;2.42;;;0.50;;
45322;SDS011;31382;50.200;8.674;2023-07-31T14:06:16;4.10;;;0.70;;
45322;SDS011;31382;50.200;8.674;2023-07-31T14:11:18;1.90;;;0.70;;
45322;SDS011;31382;50.200;8.674;2023-07-31T14:16:19;1.67;;;0.82;;
45322;SDS011;31382;50.200;8.674;2023-07-31T14:21:21;2.28;;;0.75;;
45322;SDS011;31382;50.200;8.674;2023-07-31T14:26:22;2.17;;;0.60;;
45322;SDS011;31382;50.200;8.674;2023-07-31T14:31:23;0.93;;;0.50;;
45322;SDS011;31382;50.200;8.674;2023-07-31T14:36:25;1.20;;;0.50;;
45322;SDS011;31382;50.200;8.674;2023-07-31T14:41:26;2.00;;;0.70;;
45322;SDS011;31382;50.200;8.674;2023-07-31T14:46:28;3.70;;;1.02;;
45322;SDS011;31382;50.200;8.674;2023-07-31T14:51:29;4.82;;;0.65;;
45322;SDS011;31382;50.200;8.674;2023-07-31T14:56:31;1.33;;;0.60;;
45322;SDS011;31382;50.200;8.674;2023-07-31T15:01:33;3.83;;;0.95;;
45322;SDS011;31382;50.200;8.674;2023-07-31T15:06:34;2.53;;;0.65;;
45322;SDS011;31382;50.200;8.674;2023-07-31T15:11:35;3.08;;;0.70;;
45322;SDS011;31382;50.200;8.674;2023-07-31T15:16:37;2.20;;;0.60;;
45322;SDS011;31382;50.200;8.674;2023-07-31T15:21:39;4.30;;;0.85;;
45322;SDS011;31382;50.200;8.674;2023-07-31T15:26:40;3.70;;;0.60;;
45322;SDS011;31382;50.200;8.674;2023-07-31T15:31:43;4.45;;;0.88;;
45322;SDS011;31382;50.200;8.674;2023-07-31T15:36:44;1.25;;;0.60;;
45322;SDS011;31382;50.200;8.674;2023-07-31T15:41:46;2.40;;;0.60;;
45322;SDS011;31382;50.200;8.674;2023-07-31T15:46:48;2.13;;;0.50;;
45322;SDS011;31382;50.200;8.674;2023-07-31T15:51:49;0.95;;;0.47;;
45322;SDS011;31382;50.200;8.674;2023-07-31T15:56:50;1.17;;;0.50;;
45322;SDS011;31382;50.200;8.674;2023-07-31T16:01:52;1.52;;;0.30;;
45322;SDS011;31382;50.200;8.674;2023-07-31T16:06:54;1.35;;;0.60;;
45322;SDS011;31382;50.200;8.674;2023-07-31T16:11:55;0.95;;;0.30;;
45322;SDS011;31382;50.200;8.674;2023-07-31T16:16:57;0.60;;;0.20;;
45322;SDS011;31382;50.200;8.674;2023-07-31T16:21:58;2.13;;;0.40;;
45322;SDS011;31382;50.200;8.674;2023-07-31T16:27:00;0.65;;;0.20;;
45322;SDS011;31382;50.200;8.674;2023-07-31T16:32:01;0.40;;;0.20;;
45322;SDS011;31382;50.200;8.674;2023-07-31T16:37:03;2.05;;;0.30;;
45322;SDS011;31382;50.200;8.674;2023-07-31T16:42:05;2.90;;;0.30;;
45322;SDS011;31382;50.200;8.674;2023-07-31T16:47:06;0.95;;;0.30;;
45322;SDS011;31382;50.200;8.674;2023-07-31T16:52:08;1.13;;;0.50;;
45322;SDS011;31382;50.200;8.674;2023-07-31T16:57:09;0.57;;;0.28;;
45322;SDS011;31382;50.200;8.674;2023-07-31T17:02:11;4.18;;;0.47;;
45322;SDS011;31382;50.200;8.674;2023-07-31T17:07:13;1.05;;;0.32;;
45322;SDS011;31382;50.200;8.674;2023-07-31T17:12:14;1.73;;;0.40;;
45322;SDS011;31382;50.200;8.674;2023-07-31T17:17:16;0.88;;;0.30;;
45322;SDS011;31382;50.200;8.674;2023-07-31T17:22:17;1.58;;;0.40;;
45322;SDS011;31382;50.200;8.674;2023-07-31T17:27:19;1.80;;;0.50;;
45322;SDS011;31382;50.200;8.674;2023-07-31T17:32:20;1.98;;;0.38;;
45322;SDS011;31382;50.200;8.674;2023-07-31T17:37:24;3.25;;;0.73;;
45322;SDS011;31382;50.200;8.674;2023-07-31T17:42:26;3.67;;;0.60;;
45322;SDS011;31382;50.200;8.674;2023-07-31T17:47:27;2.80;;;0.60;;
45322;SDS011;31382;50.200;8.674;2023-07-31T17:52:29;2.70;;;0.50;;
45322;SDS011;31382;50.200;8.674;2023-07-31T17:57:30;4.43;;;0.82;;
45322;SDS011;31382;50.200;8.674;2023-07-31T18:02:32;3.70;;;0.65;;
45322;SDS011;31382;50.200;8.674;2023-07-31T18:07:36;3.30;;;0.82;;
45322;SDS011;31382;50.200;8.674;2023-07-31T18:12:37;1.70;;;0.70;;
45322;SDS011;31382;50.200;8.674;2023-07-31T18:17:39;3.60;;;0.70;;
45322;SDS011;31382;50.200;8.674;2023-07-31T18:22:41;1.95;;;0.70;;
45322;SDS011;31382;50.200;8.674;2023-07-31T18:27:42;1.83;;;0.65;;
45322;SDS011;31382;50.200;8.674;2023-07-31T18:32:44;2.53;;;0.90;;
45322;SDS011;31382;50.200;8.674;2023-07-31T18:37:46;1.77;;;0.55;;
45322;SDS011;31382;50.200;8.674;2023-07-31T18:42:47;1.50;;;1.10;;
45322;SDS011;31382;50.200;8.674;2023-07-31T18:47:49;3.47;;;1.15;;
45322;SDS011;31382;50.200;8.674;2023-07-31T18:52:50;5.55;;;0.73;;
45322;SDS011;31382;50.200;8.674;2023-07-31T18:57:54;2.25;;;0.70;;
45322;SDS011;31382;50.200;8.674;2023-07-31T19:02:55;2.63;;;0.77;;
45322;SDS011;31382;50.200;8.674;2023-07-31T19:07:57;3.88;;;0.68;;
45322;SDS011;31382;50.200;8.674;2023-07-31T19:13:05;2.63;;;0.75;;
45322;SDS011;31382;50.200;8.674;2023-07-31T19:18:07;2.25;;;0.77;;
45322;SDS011;31382;50.200;8.674;2023-07-31T19:23:08;4.40;;;1.17;;
45322;SDS011;31382;50.200;8.674;2023-07-31T19:28:09;2.78;;;1.08;;
45322;SDS011;31382;50.200;8.674;2023-07-31T19:33:11;9.77;;;2.45;;
45322;SDS011;31382;50.200;8.674;2023-07-31T19:38:14;13.50;;;4.47;;
45322;SDS011;31382;50.200;8.674;2023-07-31T19:43:16;3.15;;;1.20;;
45322;SDS011;31382;50.200;8.674;2023-07-31T19:48:17;2.83;;;0.98;;
45322;SDS011;31382;50.200;8.674;2023-07-31T19:53:19;3.78;;;0.90;;
45322;SDS011;31382;50.200;8.674;2023-07-31T19:58:21;4.28;;;0.90;;
45322;SDS011;31382;50.200;8.674;2023-07-31T20:03:22;2.60;;;0.90;;
45322;SDS011;31382;50.200;8.674;2023-07-31T20:08:27;5.15;;;1.10;;
45322;SDS011;31382;50.200;8.674;2023-07-31T20:13:29;9.85;;;2.55;;
45322;SDS011;31382;50.200;8.674;2023-07-31T20:18:32;5.00;;;1.30;;
45322;SDS011;31382;50.200;8.674;2023-07-31T20:23:33;4.35;;;1.20;;
45322;SDS011;31382;50.200;8.674;2023-07-31T20:28:43;4.82;;;0.80;;
45322;SDS011;31382;50.200;8.674;2023-07-31T20:33:45;6.18;;;1.13;;
45322;SDS011;31382;50.200;8.674;2023-07-31T20:38:46;4.82;;;0.93;;
45322;SDS011;31382;50.200;8.674;2023-07-31T20:43:47;3.45;;;1.05;;
45322;SDS011;31382;50.200;8.674;2023-07-31T20:48:49;4.45;;;1.02;;
45322;SDS011;31382;50.200;8.674;2023-07-31T20:53:50;5.72;;;2.03;;
45322;SDS011;31382;50.200;8.674;2023-07-31T20:58:53;3.70;;;1.27;;
45322;SDS011;31382;50.200;8.674;2023-07-31T21:03:54;4.38;;;1.05;;
45322;SDS011;31382;50.200;8.674;2023-07-31T21:08:56;4.53;;;1.52;;
45322;SDS011;31382;50.200;8.674;2023-07-31T21:13:59;5.40;;;1.52;;
45322;SDS011;31382;50.200;8.674;2023-07-31T21:19:00;6.10;;;1.58;;
45322;SDS011;31382;50.200;8.674;2023-07-31T21:24:02;7.53;;;2.53;;
45322;SDS011;31382;50.200;8.674;2023-07-31T21:29:03;6.18;;;1.67;;
45322;SDS011;31382;50.200;8.674;2023-07-31T21:34:04;5.78;;;1.63;;
45322;SDS011;31382;50.200;8.674;2023-07-31T21:39:06;7.13;;;1.85;;
45322;SDS011;31382;50.200;8.674;2023-07-31T21:44:07;10.15;;;2.42;;
45322;SDS011;31382;50.200;8.674;2023-07-31T21:49:09;9.43;;;2.97;;
45322;SDS011;31382;50.200;8.674;2023-07-31T21:54:10;9.55;;;2.97;;
45322;SDS011;31382;50.200;8.674;2023-07-31T21:59:12;10.10;;;2.60;;
45322;SDS011;31382;50.200;8.674;2023-07-31T22:04:13;7.30;;;2.05;;
45322;SDS011;31382;50.200;8.674;2023-07-31T22:09:15;6.43;;;2.13;;
45322;SDS011;31382;50.200;8.674;2023-07-31T22:14:16;5.63;;;1.85;;
45322;SDS011;31382;50.200;8.674;2023-07-31T22:19:17;10.18;;;2.38;;
45322;SDS011;31382;50.200;8.674;2023-07-31T22:24:19;16.42;;;3.53;;
45322;SDS011;31382;50.200;8.674;2023-07-31T22:29:21;6.07;;;2.33;;
45322;SDS011;31382;50.200;8.674;2023-07-31T22:34:24;9.30;;;2.55;;
45322;SDS011;31382;50.200;8.674;2023-07-31T22:39:25;7.80;;;2.42;;
45322;SDS011;31382;50.200;8.674;2023-07-31T22:44:26;8.23;;;2.00;;
45322;SDS011;31382;50.200;8.674;2023-07-31T22:49:28;6.00;;;2.38;;
45322;SDS011;31382;50.200;8.674;2023-07-31T22:54:29;6.60;;;1.92;;
45322;SDS011;31382;50.200;8.674;2023-07-31T22:59:30;8.07;;;2.40;;
45322;SDS011;31382;50.200;8.674;2023-07-31T23:04:32;5.78;;;1.85;;
45322;SDS011;31382;50.200;8.674;2023-07-31T23:09:33;7.38;;;2.50;;
45322;SDS011;31382;50.200;8.674;2023-07-31T23:14:35;6.85;;;1.80;;
45322;SDS011;31382;50.200;8.674;2023-07-31T23:19:36;6.70;;;2.47;;
45322;SDS011;31382;50.200;8.674;2023-07-31T23:24:38;12.93;;;2.40;;
45322;SDS011;31382;50.200;8.674;2023-07-31T23:29:39;7.97;;;2.47;;
45322;SDS011;31382;50.200;8.674;2023-07-31T23:34:41;7.75;;;2.60;;
45322;SDS011;31382;50.200;8.674;2023-07-31T23:39:43;6.35;;;2.17;;
45322;SDS011;31382;50.200;8.674;2023-07-31T23:44:44;9.60;;;2.65;;
45322;SDS011;31382;50.200;8.674;2023-07-31T23:49:57;6.70;;;2.40;;
45322;SDS011;31382;50.200;8.674;2023-07-31T23:54:58;9.10;;;3.22;;
45322;SDS011;31382;50.200;8.674;2023-07-31T23:59:59;11.20;;;3.17;;
